createdAt,value
2023-03-22T00:01:24.037Z,13.30
2023-03-22T00:03:51.530Z,10.70
2023-03-22T00:06:18.372Z,11.65
2023-03-22T00:08:45.435Z,11.48
2023-03-22T00:11:12.854Z,10.95
2023-03-22T00:13:39.415Z,10.37
2023-03-22T00:16:06.476Z,9.98
2023-03-22T00:18:32.977Z,11.65
2023-03-22T00:20:59.664Z,10.15
2023-03-22T00:23:27.689Z,9.27
2023-03-22T00:25:54.285Z,9.93
2023-03-22T00:28:21.175Z,10.65
2023-03-22T00:30:53.105Z,9.80
2023-03-22T00:33:19.575Z,9.85
2023-03-22T00:35:52.902Z,8.77
2023-03-22T00:38:20.632Z,10.27
2023-03-22T00:40:48.369Z,7.95
2023-03-22T00:43:15.714Z,11.55
2023-03-22T00:45:42.858Z,10.07
2023-03-22T00:48:12.583Z,10.40
2023-03-22T00:50:40.196Z,10.67
2023-03-22T00:53:07.120Z,9.73
2023-03-22T00:55:33.724Z,10.80
2023-03-22T00:58:00.381Z,10.82
2023-03-22T01:00:28.223Z,10.85
2023-03-22T01:02:59.637Z,10.40
2023-03-22T01:05:28.280Z,10.57
2023-03-22T01:07:55.202Z,12.07
2023-03-22T01:10:21.672Z,11.00
2023-03-22T01:12:48.185Z,11.07
2023-03-22T01:15:14.757Z,11.27
2023-03-22T01:17:41.563Z,11.68
2023-03-22T01:20:09.452Z,11.70
2023-03-22T01:22:35.977Z,11.68
2023-03-22T01:25:03.216Z,11.35
2023-03-22T01:27:29.786Z,12.23
2023-03-22T01:29:56.322Z,12.23
2023-03-22T01:32:22.873Z,12.63
2023-03-22T01:34:49.532Z,13.15
2023-03-22T01:37:16.027Z,13.07
2023-03-22T01:39:42.544Z,14.30
2023-03-22T01:42:14.007Z,13.50
2023-03-22T01:44:43.542Z,12.10
2023-03-22T01:47:11.509Z,14.25
2023-03-22T01:49:38.469Z,12.93
2023-03-22T01:52:12.706Z,12.23
2023-03-22T01:54:45.634Z,9.98
2023-03-22T01:57:12.223Z,13.77
2023-03-22T01:59:40.787Z,14.15
2023-03-22T02:02:08.003Z,14.63
2023-03-22T02:04:38.358Z,14.87
2023-03-22T02:07:10.112Z,14.57
2023-03-22T02:09:42.261Z,13.45
2023-03-22T02:12:20.480Z,13.80
2023-03-22T02:15:16.241Z,14.60
2023-03-22T02:17:52.825Z,14.17
2023-03-22T02:20:31.671Z,14.55
2023-03-22T02:23:27.801Z,14.40
2023-03-22T02:26:13.132Z,14.57
2023-03-22T02:28:55.005Z,15.88
2023-03-22T02:31:29.997Z,15.20
2023-03-22T02:34:47.146Z,14.68
2023-03-22T02:37:13.557Z,15.23
2023-03-22T02:39:58.120Z,15.93
2023-03-22T02:42:45.959Z,10.55
2023-03-22T02:45:17.392Z,15.57
2023-03-22T02:48:07.139Z,14.52
2023-03-22T02:50:52.684Z,15.07
2023-03-22T02:53:33.628Z,16.00
2023-03-22T02:56:18.409Z,13.57
2023-03-22T02:58:48.003Z,14.93
2023-03-22T03:01:23.732Z,16.70
2023-03-22T03:03:51.125Z,13.05
2023-03-22T03:06:19.670Z,16.42
2023-03-22T03:08:50.757Z,14.85
2023-03-22T03:11:17.761Z,16.27
2023-03-22T03:13:47.682Z,12.90
2023-03-22T03:16:17.519Z,13.75
2023-03-22T03:18:53.066Z,14.70
2023-03-22T03:21:45.341Z,15.52
2023-03-22T03:24:27.037Z,15.07
2023-03-22T03:26:58.978Z,15.55
2023-03-22T03:29:43.718Z,13.00
2023-03-22T03:32:17.017Z,14.52
2023-03-22T03:34:52.627Z,17.02
2023-03-22T03:37:23.950Z,16.70
2023-03-22T03:40:09.796Z,16.70
2023-03-22T03:42:38.880Z,13.95
2023-03-22T03:45:06.605Z,11.48
2023-03-22T03:47:34.361Z,14.30
2023-03-22T03:50:00.876Z,12.70
2023-03-22T03:52:27.531Z,14.60
2023-03-22T03:54:55.076Z,16.83
2023-03-22T03:57:22.110Z,18.35
2023-03-22T03:59:48.860Z,14.45
2023-03-22T04:02:16.702Z,17.50
2023-03-22T04:04:43.379Z,18.25
2023-03-22T04:07:10.371Z,18.40
2023-03-22T04:09:38.693Z,18.42
2023-03-22T04:12:05.334Z,18.67
2023-03-22T04:14:31.908Z,21.70
2023-03-22T04:16:58.438Z,19.50
2023-03-22T04:19:25.116Z,19.08
2023-03-22T04:21:53.140Z,12.80
2023-03-22T04:24:21.590Z,20.50
2023-03-22T04:26:48.227Z,19.60
2023-03-22T04:29:15.954Z,17.55
2023-03-22T04:31:42.447Z,21.17
2023-03-22T04:34:08.974Z,18.95
2023-03-22T04:36:39.577Z,19.38
2023-03-22T04:39:09.472Z,23.07
2023-03-22T04:41:37.078Z,15.50
2023-03-22T04:44:04.825Z,15.32
2023-03-22T04:46:33.802Z,23.98
2023-03-22T04:49:00.434Z,22.35
2023-03-22T04:51:28.022Z,21.40
2023-03-22T04:53:54.853Z,21.23
2023-03-22T04:56:21.889Z,18.92
2023-03-22T04:58:48.365Z,21.98
2023-03-22T05:01:16.885Z,18.48
2023-03-22T05:03:45.519Z,18.90
2023-03-22T05:06:12.413Z,14.57
2023-03-22T05:08:39.264Z,23.15
2023-03-22T05:11:10.877Z,18.45
2023-03-22T05:13:37.724Z,19.48
2023-03-22T05:16:05.597Z,22.67
2023-03-22T05:18:32.933Z,21.02
2023-03-22T05:21:00.677Z,20.33
2023-03-22T05:23:27.257Z,21.45
2023-03-22T05:25:54.231Z,23.75
2023-03-22T05:28:22.237Z,21.37
2023-03-22T05:30:50.050Z,24.38
2023-03-22T05:33:21.544Z,25.25
2023-03-22T05:35:48.822Z,25.85
2023-03-22T05:38:15.739Z,24.02
2023-03-22T05:40:43.386Z,24.60
2023-03-22T05:43:09.981Z,23.77
2023-03-22T05:45:37.064Z,24.27
2023-03-22T05:48:04.535Z,23.75
2023-03-22T05:50:31.162Z,24.33
2023-03-22T05:52:57.885Z,25.50
2023-03-22T05:55:25.876Z,24.27
2023-03-22T05:57:54.037Z,15.77
2023-03-22T06:00:21.827Z,23.52
2023-03-22T06:02:49.488Z,22.70
2023-03-22T06:05:17.444Z,27.93
2023-03-22T06:07:44.812Z,26.77
2023-03-22T06:10:13.377Z,23.70
2023-03-22T06:12:40.140Z,26.20
2023-03-22T06:15:08.110Z,24.40
2023-03-22T06:17:34.945Z,25.97
2023-03-22T06:20:01.452Z,24.17
2023-03-22T06:22:30.477Z,23.73
2023-03-22T06:24:56.981Z,18.83
2023-03-22T06:27:23.458Z,23.70
2023-03-22T06:29:51.055Z,21.87
2023-03-22T06:32:17.965Z,23.90
2023-03-22T06:34:44.574Z,22.27
2023-03-22T06:37:11.192Z,21.00
2023-03-22T06:39:37.632Z,23.45
2023-03-22T06:42:04.119Z,22.30
2023-03-22T06:44:30.811Z,23.40
2023-03-22T06:46:57.287Z,19.73
2023-03-22T06:49:24.117Z,23.08
2023-03-22T06:51:50.634Z,21.52
2023-03-22T06:54:17.131Z,21.37
2023-03-22T06:56:43.614Z,19.65
2023-03-22T06:59:10.460Z,22.50
2023-03-22T07:01:36.989Z,18.73
2023-03-22T07:04:03.949Z,20.70
2023-03-22T07:06:32.625Z,21.50
2023-03-22T07:08:59.318Z,19.00
2023-03-22T07:12:07.391Z,21.95
2023-03-22T07:14:34.150Z,20.42
2023-03-22T07:17:00.721Z,20.90
2023-03-22T07:19:28.349Z,19.52
2023-03-22T07:21:54.845Z,19.27
2023-03-22T07:24:21.323Z,21.25
2023-03-22T07:26:47.860Z,23.45
2023-03-22T07:29:14.308Z,22.35
2023-03-22T07:31:40.886Z,20.08
2023-03-22T07:34:07.476Z,18.50
2023-03-22T07:36:33.950Z,19.25
2023-03-22T07:39:00.520Z,18.25
2023-03-22T07:41:28.844Z,17.85
2023-03-22T07:44:04.779Z,18.70
2023-03-22T07:46:37.941Z,18.53
2023-03-22T07:49:04.580Z,17.35
2023-03-22T07:51:31.115Z,14.70
2023-03-22T07:53:57.632Z,17.02
2023-03-22T07:56:24.147Z,15.25
2023-03-22T07:58:50.696Z,15.90
2023-03-22T08:01:17.240Z,14.35
2023-03-22T08:03:43.774Z,15.65
2023-03-22T08:06:11.507Z,15.68
2023-03-22T08:08:38.655Z,14.57
2023-03-22T08:11:06.134Z,16.70
2023-03-22T08:13:32.941Z,12.55
2023-03-22T08:15:59.544Z,15.98
2023-03-22T08:18:26.082Z,13.63
2023-03-22T08:20:54.576Z,11.90
2023-03-22T08:23:28.813Z,15.23
2023-03-22T08:26:01.594Z,14.05
2023-03-22T08:28:28.099Z,15.00
2023-03-22T08:30:54.614Z,11.30
2023-03-22T08:33:23.555Z,13.35
2023-03-22T08:35:50.717Z,14.43
2023-03-22T08:38:18.084Z,12.68
2023-03-22T08:40:47.898Z,13.57
2023-03-22T08:43:14.406Z,11.93
2023-03-22T08:45:41.144Z,10.45
2023-03-22T08:48:07.865Z,11.93
2023-03-22T08:50:35.030Z,13.63
2023-03-22T08:53:01.590Z,9.40
2023-03-22T08:55:28.212Z,14.38
2023-03-22T08:57:59.946Z,13.88
2023-03-22T09:00:28.692Z,13.03
2023-03-22T09:03:00.510Z,13.95
2023-03-22T09:05:27.085Z,12.82
2023-03-22T09:07:53.872Z,12.27
2023-03-22T09:10:20.456Z,10.52
2023-03-22T09:12:46.898Z,9.80
2023-03-22T09:15:13.356Z,8.52
2023-03-22T09:17:39.916Z,9.57
2023-03-22T09:20:12.787Z,11.57
2023-03-22T09:22:40.342Z,7.45
2023-03-22T09:25:07.593Z,11.07
2023-03-22T09:27:34.082Z,10.88
2023-03-22T09:30:00.771Z,11.10
2023-03-22T09:32:27.307Z,8.63
2023-03-22T09:34:53.817Z,11.32
2023-03-22T09:37:20.348Z,8.80
2023-03-22T09:39:46.909Z,12.73
2023-03-22T09:42:48.600Z,9.20
2023-03-22T09:45:24.863Z,11.15
2023-03-22T09:47:53.800Z,11.70
2023-03-22T09:50:26.026Z,7.70
2023-03-22T09:52:53.277Z,9.95
2023-03-22T09:55:42.101Z,8.38
2023-03-22T09:58:33.146Z,10.15
2023-03-22T10:01:04.159Z,9.55
2023-03-22T10:04:05.955Z,9.60
2023-03-22T10:06:32.751Z,9.18
2023-03-22T10:09:10.284Z,8.00
2023-03-22T10:11:46.701Z,8.88
2023-03-22T10:14:41.596Z,8.90
2023-03-22T10:17:27.203Z,9.47
2023-03-22T10:19:56.719Z,8.80
2023-03-22T10:22:30.016Z,7.43
2023-03-22T10:24:57.196Z,8.23
2023-03-22T10:27:26.278Z,6.63
2023-03-22T10:29:57.119Z,8.70
2023-03-22T10:32:57.139Z,8.75
2023-03-22T10:35:24.554Z,8.18
2023-03-22T10:37:52.062Z,8.95
2023-03-22T10:40:37.544Z,7.43
2023-03-22T10:43:24.095Z,6.57
2023-03-22T10:45:53.765Z,7.00
2023-03-22T10:48:27.791Z,8.70
2023-03-22T10:50:55.029Z,9.30
2023-03-22T10:53:36.069Z,8.68
2023-03-22T10:56:02.890Z,8.40
2023-03-22T10:58:33.850Z,8.27
2023-03-22T11:01:05.987Z,9.55
2023-03-22T11:03:35.313Z,8.68
2023-03-22T11:06:07.739Z,10.38
2023-03-22T11:08:46.671Z,7.80
2023-03-22T11:11:17.683Z,8.32
2023-03-22T11:13:50.342Z,6.78
2023-03-22T11:16:17.764Z,7.40
2023-03-22T11:18:44.353Z,5.00
2023-03-22T11:21:11.925Z,7.93
2023-03-22T11:23:41.703Z,7.07
2023-03-22T11:26:08.204Z,7.80
2023-03-22T11:28:49.525Z,9.82
2023-03-22T11:31:20.502Z,8.80
2023-03-22T11:34:01.045Z,6.53
2023-03-22T11:36:28.384Z,8.93
2023-03-22T11:39:00.280Z,7.88
2023-03-22T11:41:31.293Z,7.90
2023-03-22T11:44:11.337Z,7.35
2023-03-22T11:46:38.520Z,7.87
2023-03-22T11:49:08.585Z,8.00
2023-03-22T11:51:38.612Z,7.38
2023-03-22T11:54:09.322Z,7.05
2023-03-22T11:56:41.182Z,9.02
2023-03-22T11:59:14.069Z,5.77
2023-03-22T12:01:44.514Z,7.68
2023-03-22T12:04:18.768Z,9.40
2023-03-22T12:06:45.373Z,7.15
2023-03-22T12:09:30.320Z,7.45
2023-03-22T12:11:57.646Z,8.53
2023-03-22T12:14:53.678Z,8.70
2023-03-22T12:17:24.195Z,7.18
2023-03-22T12:20:00.472Z,8.43
2023-03-22T12:22:40.324Z,7.88
2023-03-22T12:25:12.927Z,8.37
2023-03-22T12:27:42.555Z,7.93
2023-03-22T12:30:21.537Z,7.75
2023-03-22T12:33:16.726Z,8.02
2023-03-22T12:35:45.575Z,4.95
2023-03-22T12:38:36.653Z,8.47
2023-03-22T12:41:06.407Z,7.50
2023-03-22T12:43:44.798Z,7.18
2023-03-22T12:46:19.549Z,8.75
2023-03-22T12:48:50.905Z,7.35
2023-03-22T12:51:17.396Z,9.17
2023-03-22T12:53:55.317Z,7.57
2023-03-22T12:56:33.650Z,8.10
2023-03-22T12:59:03.891Z,7.40
2023-03-22T13:01:46.208Z,7.63
2023-03-22T13:04:47.596Z,7.60
2023-03-22T13:07:16.635Z,9.38
2023-03-22T13:09:50.670Z,7.10
2023-03-22T13:12:17.110Z,6.93
2023-03-22T13:14:52.765Z,9.25
2023-03-22T13:17:25.532Z,9.50
2023-03-22T13:20:00.094Z,9.02
2023-03-22T13:22:27.868Z,8.90
2023-03-22T13:24:59.378Z,7.10
2023-03-22T13:27:35.599Z,9.65
2023-03-22T13:30:04.715Z,7.80
2023-03-22T13:32:33.615Z,6.85
2023-03-22T13:35:00.880Z,9.27
2023-03-22T13:37:47.453Z,8.98
2023-03-22T13:40:46.441Z,9.73
2023-03-22T13:43:37.107Z,6.40
2023-03-22T13:46:20.035Z,8.98
2023-03-22T13:48:46.948Z,8.65
2023-03-22T13:51:22.730Z,7.88
2023-03-22T13:53:57.090Z,9.50
2023-03-22T13:56:33.755Z,11.03
2023-03-22T13:59:03.810Z,10.60
2023-03-22T14:01:37.217Z,7.97
2023-03-22T14:04:11.335Z,8.00
2023-03-22T14:07:07.015Z,8.70
2023-03-22T14:09:44.644Z,7.70
2023-03-22T14:12:29.725Z,7.95
2023-03-22T14:14:58.521Z,8.38
2023-03-22T14:17:43.831Z,9.50
2023-03-22T14:20:16.689Z,8.57
